sensor_id;sensor_type;location;lat;lon;timestamp;pressure;altitude;pressure_sealevel;temperature;humidity
51496;BME280;37572;52.094;4.870;2024-01-06T00:02:14;100462.19;;;10.12;60.39
51496;BME280;37572;52.094;4.870;2024-01-06T00:04:39;100461.53;;;10.10;60.34
51496;BME280;37572;52.094;4.870;2024-01-06T00:07:05;100460.56;;;10.11;60.29
51496;BME280;37572;52.094;4.870;2024-01-06T00:09:30;100468.53;;;10.11;60.13
51496;BME280;37572;52.094;4.870;2024-01-06T00:11:55;100466.84;;;10.10;59.94
51496;BME280;37572;52.094;4.870;2024-01-06T00:14:20;100472.50;;;10.07;59.78
51496;BME280;37572;52.094;4.870;2024-01-06T00:16:46;100467.50;;;10.04;59.98
51496;BME280;37572;52.094;4.870;2024-01-06T00:19:11;100466.16;;;9.99;60.06
51496;BME280;37572;52.094;4.870;2024-01-06T00:21:36;100471.63;;;9.98;60.09
51496;BME280;37572;52.094;4.870;2024-01-06T00:24:02;100483.09;;;9.98;60.25
51496;BME280;37572;52.094;4.870;2024-01-06T00:26:27;100478.59;;;9.99;60.48
51496;BME280;37572;52.094;4.870;2024-01-06T00:28:52;100473.44;;;9.97;60.20
51496;BME280;37572;52.094;4.870;2024-01-06T00:31:18;100475.94;;;9.99;60.27
51496;BME280;37572;52.094;4.870;2024-01-06T00:33:43;100480.28;;;10.00;60.17
51496;BME280;37572;52.094;4.870;2024-01-06T00:36:09;100482.94;;;10.00;60.12
51496;BME280;37572;52.094;4.870;2024-01-06T00:38:34;100482.13;;;9.99;60.24
51496;BME280;37572;52.094;4.870;2024-01-06T00:41:03;100487.44;;;9.99;60.17
51496;BME280;37572;52.094;4.870;2024-01-06T00:43:29;100485.75;;;9.98;60.18
51496;BME280;37572;52.094;4.870;2024-01-06T00:45:54;100485.91;;;9.97;60.54
51496;BME280;37572;52.094;4.870;2024-01-06T00:48:20;100492.91;;;9.98;60.06
51496;BME280;37572;52.094;4.870;2024-01-06T00:50:45;100496.72;;;9.95;60.01
51496;BME280;37572;52.094;4.870;2024-01-06T00:53:11;100496.88;;;9.94;60.07
51496;BME280;37572;52.094;4.870;2024-01-06T00:55:36;100500.69;;;9.91;60.07
51496;BME280;37572;52.094;4.870;2024-01-06T00:58:02;100505.16;;;9.91;60.07
51496;BME280;37572;52.094;4.870;2024-01-06T01:00:27;100511.00;;;9.86;59.84
51496;BME280;37572;52.094;4.870;2024-01-06T01:02:53;100505.16;;;9.82;59.83
51496;BME280;37572;52.094;4.870;2024-01-06T01:05:18;100509.25;;;9.77;59.84
51496;BME280;37572;52.094;4.870;2024-01-06T01:07:44;100514.91;;;9.74;59.88
51496;BME280;37572;52.094;4.870;2024-01-06T01:10:09;100516.88;;;9.72;59.78
51496;BME280;37572;52.094;4.870;2024-01-06T01:12:35;100530.66;;;9.67;59.85
51496;BME280;37572;52.094;4.870;2024-01-06T01:15:00;100530.81;;;9.66;59.86
51496;BME280;37572;52.094;4.870;2024-01-06T01:17:26;100534.47;;;9.65;60.03
51496;BME280;37572;52.094;4.870;2024-01-06T01:19:51;100534.63;;;9.63;59.93
51496;BME280;37572;52.094;4.870;2024-01-06T01:22:16;100537.59;;;9.60;59.63
51496;BME280;37572;52.094;4.870;2024-01-06T01:24:42;100539.56;;;9.58;59.79
51496;BME280;37572;52.094;4.870;2024-01-06T01:27:07;100544.03;;;9.57;59.87
51496;BME280;37572;52.094;4.870;2024-01-06T01:29:33;100551.19;;;9.57;59.92
51496;BME280;37572;52.094;4.870;2024-01-06T01:31:58;100557.34;;;9.57;59.86
51496;BME280;37572;52.094;4.870;2024-01-06T01:34:23;100556.19;;;9.60;59.95
51496;BME280;37572;52.094;4.870;2024-01-06T01:36:49;100569.19;;;9.63;59.95
51496;BME280;37572;52.094;4.870;2024-01-06T01:39:15;100561.88;;;9.65;60.01
51496;BME280;37572;52.094;4.870;2024-01-06T01:41:40;100561.72;;;9.67;59.91
51496;BME280;37572;52.094;4.870;2024-01-06T01:44:06;100561.56;;;9.68;60.27
51496;BME280;37572;52.094;4.870;2024-01-06T01:46:31;100573.03;;;9.69;59.90
51496;BME280;37572;52.094;4.870;2024-01-06T01:48:58;100572.88;;;9.70;60.02
51496;BME280;37572;52.094;4.870;2024-01-06T01:51:29;100582.69;;;9.70;59.83
51496;BME280;37572;52.094;4.870;2024-01-06T01:53:55;100586.31;;;9.69;59.64
51496;BME280;37572;52.094;4.870;2024-01-06T01:56:22;100589.00;;;9.69;59.79
51496;BME280;37572;52.094;4.870;2024-01-06T01:58:47;100595.31;;;9.68;60.06
51496;BME280;37572;52.094;4.870;2024-01-06T02:01:13;100595.63;;;9.65;59.97
51496;BME280;37572;52.094;4.870;2024-01-06T02:03:41;100593.41;;;9.60;60.05
51496;BME280;37572;52.094;4.870;2024-01-06T02:06:08;100592.75;;;9.58;59.98
51496;BME280;37572;52.094;4.870;2024-01-06T02:08:34;100591.22;;;9.55;59.75
51496;BME280;37572;52.094;4.870;2024-01-06T02:10:59;100598.53;;;9.53;59.96
51496;BME280;37572;52.094;4.870;2024-01-06T02:13:32;100601.47;;;9.50;59.93
51496;BME280;37572;52.094;4.870;2024-01-06T02:15:58;100604.44;;;9.47;59.75
51496;BME280;37572;52.094;4.870;2024-01-06T02:18:24;100606.72;;;9.42;59.73
51496;BME280;37572;52.094;4.870;2024-01-06T02:20:50;100615.16;;;9.37;60.00
51496;BME280;37572;52.094;4.870;2024-01-06T02:23:18;100614.63;;;9.34;60.09
51496;BME280;37572;52.094;4.870;2024-01-06T02:25:43;100617.59;;;9.31;59.90
51496;BME280;37572;52.094;4.870;2024-01-06T02:28:09;100625.56;;;9.31;60.15
51496;BME280;37572;52.094;4.870;2024-01-06T02:30:35;100629.22;;;9.30;59.59
51496;BME280;37572;52.094;4.870;2024-01-06T02:33:00;100637.50;;;9.26;60.00
51496;BME280;37572;52.094;4.870;2024-01-06T02:35:25;100639.63;;;9.23;59.92
51496;BME280;37572;52.094;4.870;2024-01-06T02:37:50;100645.25;;;9.20;59.76
51496;BME280;37572;52.094;4.870;2024-01-06T02:40:16;100638.41;;;9.17;59.99
51496;BME280;37572;52.094;4.870;2024-01-06T02:42:41;100640.38;;;9.15;60.14
51496;BME280;37572;52.094;4.870;2024-01-06T02:45:07;100644.00;;;9.14;60.14
51496;BME280;37572;52.094;4.870;2024-01-06T02:47:34;100645.00;;;9.13;60.02
51496;BME280;37572;52.094;4.870;2024-01-06T02:49:59;100651.81;;;9.16;60.08
51496;BME280;37572;52.094;4.870;2024-01-06T02:52:25;100652.38;;;9.19;60.26
51496;BME280;37572;52.094;4.870;2024-01-06T02:54:50;100650.41;;;9.21;60.04
51496;BME280;37572;52.094;4.870;2024-01-06T02:57:15;100663.53;;;9.23;60.24
51496;BME280;37572;52.094;4.870;2024-01-06T02:59:41;100663.41;;;9.24;60.22
51496;BME280;37572;52.094;4.870;2024-01-06T03:02:06;100662.38;;;9.25;60.06
51496;BME280;37572;52.094;4.870;2024-01-06T03:04:31;100664.06;;;9.26;60.20
51496;BME280;37572;52.094;4.870;2024-01-06T03:06:57;100668.72;;;9.24;60.09
51496;BME280;37572;52.094;4.870;2024-01-06T03:09:22;100676.69;;;9.24;59.97
51496;BME280;37572;52.094;4.870;2024-01-06T03:11:47;100668.72;;;9.24;59.79
51496;BME280;37572;52.094;4.870;2024-01-06T03:14:12;100676.69;;;9.24;59.79
51496;BME280;37572;52.094;4.870;2024-01-06T03:16:38;100675.97;;;9.22;59.72
51496;BME280;37572;52.094;4.870;2024-01-06T03:19:03;100682.16;;;9.23;59.75
51496;BME280;37572;52.094;4.870;2024-01-06T03:21:28;100679.34;;;9.24;59.72
51496;BME280;37572;52.094;4.870;2024-01-06T03:23:54;100684.66;;;9.24;59.60
51496;BME280;37572;52.094;4.870;2024-01-06T03:26:20;100687.31;;;9.24;59.91
51496;BME280;37572;52.094;4.870;2024-01-06T03:28:46;100696.94;;;9.25;59.82
51496;BME280;37572;52.094;4.870;2024-01-06T03:31:11;100693.97;;;9.29;59.84
51496;BME280;37572;52.094;4.870;2024-01-06T03:33:36;100693.84;;;9.30;59.73
51496;BME280;37572;52.094;4.870;2024-01-06T03:36:05;100691.03;;;9.32;59.57
51496;BME280;37572;52.094;4.870;2024-01-06T03:38:31;100694.66;;;9.31;60.04
51496;BME280;37572;52.094;4.870;2024-01-06T03:40:56;100710.59;;;9.31;59.83
51496;BME280;37572;52.094;4.870;2024-01-06T03:43:22;100704.75;;;9.27;59.78
51496;BME280;37572;52.094;4.870;2024-01-06T03:45:48;100712.88;;;9.25;59.74
51496;BME280;37572;52.094;4.870;2024-01-06T03:48:13;100711.91;;;9.26;59.71
51496;BME280;37572;52.094;4.870;2024-01-06T03:50:38;100714.56;;;9.26;59.41
51496;BME280;37572;52.094;4.870;2024-01-06T03:53:04;100720.03;;;9.25;59.32
51496;BME280;37572;52.094;4.870;2024-01-06T03:55:29;100717.38;;;9.25;59.44
51496;BME280;37572;52.094;4.870;2024-01-06T03:57:56;100717.38;;;9.25;59.21
51496;BME280;37572;52.094;4.870;2024-01-06T04:00:21;100731.78;;;9.22;59.16
51496;BME280;37572;52.094;4.870;2024-01-06T04:02:47;100729.59;;;9.18;59.02
51496;BME280;37572;52.094;4.870;2024-01-06T04:05:12;100721.75;;;9.16;59.00
51496;BME280;37572;52.094;4.870;2024-01-06T04:07:38;100728.88;;;9.16;59.11
51496;BME280;37572;52.094;4.870;2024-01-06T04:10:03;100736.03;;;9.15;59.18
51496;BME280;37572;52.094;4.870;2024-01-06T04:12:30;100730.69;;;9.15;59.01
51496;BME280;37572;52.094;4.870;2024-01-06T04:14:55;100745.66;;;9.16;59.27
51496;BME280;37572;52.094;4.870;2024-01-06T04:17:20;100735.03;;;9.16;59.21
51496;BME280;37572;52.094;4.870;2024-01-06T04:19:46;100743.47;;;9.12;59.21
51496;BME280;37572;52.094;4.870;2024-01-06T04:22:11;100751.88;;;9.07;59.18
51496;BME280;37572;52.094;4.870;2024-01-06T04:24:36;100757.47;;;9.04;59.43
51496;BME280;37572;52.094;4.870;2024-01-06T04:27:06;100751.63;;;9.00;59.21
51496;BME280;37572;52.094;4.870;2024-01-06T04:29:31;100756.38;;;8.97;59.75
51496;BME280;37572;52.094;4.870;2024-01-06T04:31:57;100761.03;;;8.95;59.25
51496;BME280;37572;52.094;4.870;2024-01-06T04:34:22;100761.16;;;8.93;59.46
51496;BME280;37572;52.094;4.870;2024-01-06T04:36:47;100765.94;;;8.89;59.20
51496;BME280;37572;52.094;4.870;2024-01-06T04:39:14;100761.88;;;8.85;59.50
51496;BME280;37572;52.094;4.870;2024-01-06T04:41:40;100770.84;;;8.84;59.47
51496;BME280;37572;52.094;4.870;2024-01-06T04:44:05;100772.94;;;8.81;59.76
51496;BME280;37572;52.094;4.870;2024-01-06T04:46:30;100766.78;;;8.80;59.49
51496;BME280;37572;52.094;4.870;2024-01-06T04:48:56;100784.41;;;8.81;59.56
51496;BME280;37572;52.094;4.870;2024-01-06T04:51:21;100771.81;;;8.83;59.57
51496;BME280;37572;52.094;4.870;2024-01-06T04:53:47;100786.63;;;8.86;59.65
51496;BME280;37572;52.094;4.870;2024-01-06T04:56:12;100783.81;;;8.87;59.85
51496;BME280;37572;52.094;4.870;2024-01-06T04:58:38;100779.06;;;8.91;59.91
51496;BME280;37572;52.094;4.870;2024-01-06T05:01:03;100780.59;;;8.94;59.68
51496;BME280;37572;52.094;4.870;2024-01-06T05:03:29;100777.25;;;8.92;59.42
51496;BME280;37572;52.094;4.870;2024-01-06T05:05:54;100784.38;;;8.91;59.85
51496;BME280;37572;52.094;4.870;2024-01-06T05:08:20;100782.84;;;8.88;59.81
51496;BME280;37572;52.094;4.870;2024-01-06T05:10:47;100788.28;;;8.87;59.80
51496;BME280;37572;52.094;4.870;2024-01-06T05:13:13;100791.97;;;8.86;59.81
51496;BME280;37572;52.094;4.870;2024-01-06T05:15:38;100794.75;;;8.84;60.07
51496;BME280;37572;52.094;4.870;2024-01-06T05:18:03;100801.84;;;8.84;60.08
51496;BME280;37572;52.094;4.870;2024-01-06T05:20:29;100809.00;;;8.83;60.11
51496;BME280;37572;52.094;4.870;2024-01-06T05:22:54;100803.97;;;8.80;59.95
51496;BME280;37572;52.094;4.870;2024-01-06T05:25:19;100804.13;;;8.79;60.24
51496;BME280;37572;52.094;4.870;2024-01-06T05:27:45;100798.94;;;8.77;60.33
51496;BME280;37572;52.094;4.870;2024-01-06T05:30:10;100801.59;;;8.77;60.02
51496;BME280;37572;52.094;4.870;2024-01-06T05:32:37;100807.91;;;8.76;60.11
51496;BME280;37572;52.094;4.870;2024-01-06T05:35:03;100809.84;;;8.74;60.06
51496;BME280;37572;52.094;4.870;2024-01-06T05:37:28;100814.47;;;8.72;60.28
51496;BME280;37572;52.094;4.870;2024-01-06T05:39:54;100812.09;;;8.69;60.53
51496;BME280;37572;52.094;4.870;2024-01-06T05:42:19;100816.72;;;8.67;60.44
51496;BME280;37572;52.094;4.870;2024-01-06T05:44:45;100829.31;;;8.65;60.21
51496;BME280;37572;52.094;4.870;2024-01-06T05:47:10;100833.94;;;8.63;60.45
51496;BME280;37572;52.094;4.870;2024-01-06T05:49:35;100838.38;;;8.62;60.16
51496;BME280;37572;52.094;4.870;2024-01-06T05:52:00;100833.09;;;8.62;60.35
51496;BME280;37572;52.094;4.870;2024-01-06T05:54:26;100839.25;;;8.63;60.31
51496;BME280;37572;52.094;4.870;2024-01-06T05:56:51;100847.34;;;8.61;60.06
51496;BME280;37572;52.094;4.870;2024-01-06T05:59:17;100843.84;;;8.61;60.38
51496;BME280;37572;52.094;4.870;2024-01-06T06:01:42;100847.34;;;8.61;60.40
51496;BME280;37572;52.094;4.870;2024-01-06T06:04:09;100858.78;;;8.62;60.31
51496;BME280;37572;52.094;4.870;2024-01-06T06:06:34;100866.91;;;8.60;60.10
51496;BME280;37572;52.094;4.870;2024-01-06T06:08:59;100864.38;;;8.59;60.14
51496;BME280;37572;52.094;4.870;2024-01-06T06:11:25;100865.38;;;8.58;60.41
51496;BME280;37572;52.094;4.870;2024-01-06T06:13:50;100870.84;;;8.56;60.46
51496;BME280;37572;52.094;4.870;2024-01-06T06:16:15;100879.75;;;8.55;60.26
51496;BME280;37572;52.094;4.870;2024-01-06T06:18:41;100884.38;;;8.53;60.42
51496;BME280;37572;52.094;4.870;2024-01-06T06:21:07;100889.69;;;8.53;60.34
51496;BME280;37572;52.094;4.870;2024-01-06T06:23:33;100895.00;;;8.53;60.61
51496;BME280;37572;52.094;4.870;2024-01-06T06:25:58;100894.13;;;8.52;60.17
51496;BME280;37572;52.094;4.870;2024-01-06T06:28:25;100897.94;;;8.50;60.38
51496;BME280;37572;52.094;4.870;2024-01-06T06:30:50;100902.56;;;8.48;60.53
51496;BME280;37572;52.094;4.870;2024-01-06T06:33:16;100915.97;;;8.46;60.46
51496;BME280;37572;52.094;4.870;2024-01-06T06:35:42;100917.16;;;8.42;60.28
51496;BME280;37572;52.094;4.870;2024-01-06T06:38:07;100919.25;;;8.39;60.24
51496;BME280;37572;52.094;4.870;2024-01-06T06:40:33;100913.13;;;8.38;60.46
51496;BME280;37572;52.094;4.870;2024-01-06T06:42:58;100917.44;;;8.39;60.46
51496;BME280;37572;52.094;4.870;2024-01-06T06:45:23;100922.63;;;8.41;60.67
51496;BME280;37572;52.094;4.870;2024-01-06T06:47:49;100928.78;;;8.41;60.34
51496;BME280;37572;52.094;4.870;2024-01-06T06:50:18;100933.09;;;8.42;60.42
51496;BME280;37572;52.094;4.870;2024-01-06T06:52:46;100931.31;;;8.43;60.62
51496;BME280;37572;52.094;4.870;2024-01-06T06:55:11;100940.22;;;8.42;60.70
51496;BME280;37572;52.094;4.870;2024-01-06T06:57:36;100938.41;;;8.42;60.27
51496;BME280;37572;52.094;4.870;2024-01-06T07:00:02;100941.19;;;8.41;60.71
51496;BME280;37572;52.094;4.870;2024-01-06T07:02:27;100954.47;;;8.41;60.51
51496;BME280;37572;52.094;4.870;2024-01-06T07:04:53;100951.66;;;8.42;60.51
51496;BME280;37572;52.094;4.870;2024-01-06T07:07:18;100956.16;;;8.42;60.44
51496;BME280;37572;52.094;4.870;2024-01-06T07:09:44;100960.75;;;8.40;60.51
51496;BME280;37572;52.094;4.870;2024-01-06T07:12:09;100965.22;;;8.39;60.27
51496;BME280;37572;52.094;4.870;2024-01-06T07:14:34;100968.84;;;8.38;60.52
51496;BME280;37572;52.094;4.870;2024-01-06T07:17:00;100975.81;;;8.39;60.31
51496;BME280;37572;52.094;4.870;2024-01-06T07:19:25;100976.69;;;8.40;60.33
51496;BME280;37572;52.094;4.870;2024-01-06T07:21:51;100984.50;;;8.41;60.30
51496;BME280;37572;52.094;4.870;2024-01-06T07:24:17;100984.50;;;8.41;60.56
51496;BME280;37572;52.094;4.870;2024-01-06T07:26:43;100994.13;;;8.42;60.34
51496;BME280;37572;52.094;4.870;2024-01-06T07:29:08;100999.44;;;8.42;60.45
51496;BME280;37572;52.094;4.870;2024-01-06T07:31:33;100998.50;;;8.43;60.49
51496;BME280;37572;52.094;4.870;2024-01-06T07:33:59;101002.53;;;8.47;60.49
51496;BME280;37572;52.094;4.870;2024-01-06T07:36:24;101009.41;;;8.50;60.26
51496;BME280;37572;52.094;4.870;2024-01-06T07:38:50;101019.06;;;8.51;60.43
51496;BME280;37572;52.094;4.870;2024-01-06T07:41:17;101019.06;;;8.51;60.43
51496;BME280;37572;52.094;4.870;2024-01-06T07:43:42;101024.22;;;8.52;60.21
51496;BME280;37572;52.094;4.870;2024-01-06T07:46:07;101024.22;;;8.52;59.97
51496;BME280;37572;52.094;4.870;2024-01-06T07:48:34;101030.09;;;8.56;60.16
51496;BME280;37572;52.094;4.870;2024-01-06T07:51:01;101034.56;;;8.56;59.86
51496;BME280;37572;52.094;4.870;2024-01-06T07:53:26;101037.06;;;8.57;60.21
51496;BME280;37572;52.094;4.870;2024-01-06T07:55:51;101034.41;;;8.57;59.99
51496;BME280;37572;52.094;4.870;2024-01-06T07:58:17;101032.63;;;8.58;60.05
51496;BME280;37572;52.094;4.870;2024-01-06T08:00:42;101036.25;;;8.57;60.01
51496;BME280;37572;52.094;4.870;2024-01-06T08:03:07;101037.06;;;8.57;59.77
51496;BME280;37572;52.094;4.870;2024-01-06T08:05:32;101048.81;;;8.55;59.87
51496;BME280;37572;52.094;4.870;2024-01-06T08:07:58;101047.13;;;8.54;59.74
51496;BME280;37572;52.094;4.870;2024-01-06T08:10:23;101058.56;;;8.54;60.12
51496;BME280;37572;52.094;4.870;2024-01-06T08:12:48;101059.44;;;8.55;59.92
51496;BME280;37572;52.094;4.870;2024-01-06T08:15:14;101064.63;;;8.56;60.04
51496;BME280;37572;52.094;4.870;2024-01-06T08:17:39;101073.28;;;8.58;59.77
51496;BME280;37572;52.094;4.870;2024-01-06T08:20:07;101074.94;;;8.59;59.76
51496;BME280;37572;52.094;4.870;2024-01-06T08:22:32;101080.97;;;8.61;59.96
51496;BME280;37572;52.094;4.870;2024-01-06T08:24:57;101085.56;;;8.59;59.53
51496;BME280;37572;52.094;4.870;2024-01-06T08:27:23;101086.53;;;8.58;59.75
51496;BME280;37572;52.094;4.870;2024-01-06T08:29:49;101095.75;;;8.54;59.68
51496;BME280;37572;52.094;4.870;2024-01-06T08:32:15;101095.03;;;8.52;59.87
51496;BME280;37572;52.094;4.870;2024-01-06T08:34:41;101097.69;;;8.52;60.05
51496;BME280;37572;52.094;4.870;2024-01-06T08:37:06;101093.38;;;8.51;59.81
51496;BME280;37572;52.094;4.870;2024-01-06T08:39:32;101096.75;;;8.53;60.05
51496;BME280;37572;52.094;4.870;2024-01-06T08:41:57;101099.25;;;8.55;60.12
51496;BME280;37572;52.094;4.870;2024-01-06T08:44:22;101097.31;;;8.57;59.98
51496;BME280;37572;52.094;4.870;2024-01-06T08:46:48;101101.34;;;8.61;60.10
51496;BME280;37572;52.094;4.870;2024-01-06T08:49:13;101103.88;;;8.62;60.03
51496;BME280;37572;52.094;4.870;2024-01-06T08:51:38;101107.25;;;8.64;60.08
51496;BME280;37572;52.094;4.870;2024-01-06T08:54:03;101116.75;;;8.67;60.20
51496;BME280;37572;52.094;4.870;2024-01-06T08:56:31;101113.81;;;8.70;60.11
51496;BME280;37572;52.094;4.870;2024-01-06T08:58:56;101113.69;;;8.72;60.03
51496;BME280;37572;52.094;4.870;2024-01-06T09:01:22;101122.34;;;8.74;59.62
51496;BME280;37572;52.094;4.870;2024-01-06T09:03:47;101125.00;;;8.74;59.93
51496;BME280;37572;52.094;4.870;2024-01-06T09:06:13;101129.47;;;8.73;60.01
51496;BME280;37572;52.094;4.870;2024-01-06T09:08:39;101134.78;;;8.73;59.80
51496;BME280;37572;52.094;4.870;2024-01-06T09:11:04;101137.31;;;8.75;59.70
51496;BME280;37572;52.094;4.870;2024-01-06T09:13:29;101138.97;;;8.76;59.73
51496;BME280;37572;52.094;4.870;2024-01-06T09:15:55;101147.81;;;8.76;59.78
51496;BME280;37572;52.094;4.870;2024-01-06T09:18:20;101151.28;;;8.77;60.00
51496;BME280;37572;52.094;4.870;2024-01-06T09:20:45;101155.63;;;8.78;59.63
51496;BME280;37572;52.094;4.870;2024-01-06T09:23:13;101159.13;;;8.78;59.31
51496;BME280;37572;52.094;4.870;2024-01-06T09:25:39;101164.44;;;8.78;59.37
51496;BME280;37572;52.094;4.870;2024-01-06T09:28:07;101163.47;;;8.79;59.55
51496;BME280;37572;52.094;4.870;2024-01-06T09:30:32;101167.66;;;8.82;59.69
51496;BME280;37572;52.094;4.870;2024-01-06T09:32:57;101171.72;;;8.86;59.55
51496;BME280;37572;52.094;4.870;2024-01-06T09:35:23;101176.59;;;8.91;59.37
51496;BME280;37572;52.094;4.870;2024-01-06T09:37:48;101176.47;;;8.92;59.53
51496;BME280;37572;52.094;4.870;2024-01-06T09:40:21;101186.28;;;8.92;59.48
51496;BME280;37572;52.094;4.870;2024-01-06T09:42:46;101182.78;;;8.91;59.21
51496;BME280;37572;52.094;4.870;2024-01-06T09:45:12;101189.19;;;8.88;58.86
51496;BME280;37572;52.094;4.870;2024-01-06T09:47:40;101192.81;;;8.87;58.95
51496;BME280;37572;52.094;4.870;2024-01-06T09:50:08;101197.28;;;8.87;58.83
51496;BME280;37572;52.094;4.870;2024-01-06T09:52:39;101201.78;;;8.86;58.97
51496;BME280;37572;52.094;4.870;2024-01-06T09:55:10;101209.03;;;8.84;58.82
51496;BME280;37572;52.094;4.870;2024-01-06T09:57:36;101202.88;;;8.84;58.79
51496;BME280;37572;52.094;4.870;2024-01-06T10:00:02;101217.16;;;8.83;58.90
51496;BME280;37572;52.094;4.870;2024-01-06T10:02:29;101219.81;;;8.83;58.88
51496;BME280;37572;52.094;4.870;2024-01-06T10:04:59;101218.81;;;8.84;58.92
51496;BME280;37572;52.094;4.870;2024-01-06T10:07:28;101224.69;;;8.87;58.86
51496;BME280;37572;52.094;4.870;2024-01-06T10:09:54;101223.84;;;8.87;58.67
51496;BME280;37572;52.094;4.870;2024-01-06T10:12:26;101230.00;;;8.87;58.60
51496;BME280;37572;52.094;4.870;2024-01-06T10:14:53;101227.34;;;8.87;58.29
51496;BME280;37572;52.094;4.870;2024-01-06T10:17:19;101235.31;;;8.87;58.35
51496;BME280;37572;52.094;4.870;2024-01-06T10:19:47;101230.28;;;8.84;58.07
51496;BME280;37572;52.094;4.870;2024-01-06T10:22:13;101238.41;;;8.83;58.40
51496;BME280;37572;52.094;4.870;2024-01-06T10:24:39;101245.63;;;8.81;58.10
51496;BME280;37572;52.094;4.870;2024-01-06T10:27:04;101246.75;;;8.78;58.04
51496;BME280;37572;52.094;4.870;2024-01-06T10:29:29;101238.09;;;8.76;58.06
51496;BME280;37572;52.094;4.870;2024-01-06T10:31:55;101238.09;;;8.76;57.93
51496;BME280;37572;52.094;4.870;2024-01-06T10:34:21;101251.38;;;8.76;58.06
51496;BME280;37572;52.094;4.870;2024-01-06T10:36:47;101249.69;;;8.75;58.18
51496;BME280;37572;52.094;4.870;2024-01-06T10:39:13;101256.06;;;8.73;58.18
51496;BME280;37572;52.094;4.870;2024-01-06T10:41:41;101263.22;;;8.72;58.32
51496;BME280;37572;52.094;4.870;2024-01-06T10:44:08;101265.88;;;8.72;58.27
51496;BME280;37572;52.094;4.870;2024-01-06T10:46:34;101262.38;;;8.72;58.13
51496;BME280;37572;52.094;4.870;2024-01-06T10:49:00;101262.50;;;8.70;58.27
51496;BME280;37572;52.094;4.870;2024-01-06T10:51:27;101268.78;;;8.69;58.21
51496;BME280;37572;52.094;4.870;2024-01-06T10:53:53;101268.78;;;8.69;58.21
51496;BME280;37572;52.094;4.870;2024-01-06T10:56:19;101274.97;;;8.69;58.65
51496;BME280;37572;52.094;4.870;2024-01-06T10:58:47;101271.31;;;8.70;58.59
51496;BME280;37572;52.094;4.870;2024-01-06T11:01:20;101271.19;;;8.72;58.41
51496;BME280;37572;52.094;4.870;2024-01-06T11:03:47;101273.69;;;8.74;58.61
51496;BME280;37572;52.094;4.870;2024-01-06T11:06:13;101281.53;;;8.75;58.74
51496;BME280;37572;52.094;4.870;2024-01-06T11:08:48;101275.97;;;8.78;58.81
51496;BME280;37572;52.094;4.870;2024-01-06T11:11:18;101275.00;;;8.79;58.72
51496;BME280;37572;52.094;4.870;2024-01-06T11:13:45;101278.38;;;8.81;58.88
51496;BME280;37572;52.094;4.870;2024-01-06T11:16:11;101283.41;;;8.84;58.54
51496;BME280;37572;52.094;4.870;2024-01-06T11:18:38;101285.06;;;8.85;58.73
51496;BME280;37572;52.094;4.870;2024-01-06T11:21:20;101284.09;;;8.86;58.78
51496;BME280;37572;52.094;4.870;2024-01-06T11:24:18;101283.13;;;8.87;58.71
51496;BME280;37572;52.094;4.870;2024-01-06T11:26:52;101283.13;;;8.87;58.31
51496;BME280;37572;52.094;4.870;2024-01-06T11:29:19;101288.44;;;8.87;58.60
51496;BME280;37572;52.094;4.870;2024-01-06T11:34:53;101286.78;;;8.86;58.28
51496;BME280;37572;52.094;4.870;2024-01-06T11:37:27;101289.44;;;8.86;58.13
51496;BME280;37572;52.094;4.870;2024-01-06T11:40:00;101285.78;;;8.87;58.33
51496;BME280;37572;52.094;4.870;2024-01-06T11:42:32;101290.97;;;8.89;58.14
51496;BME280;37572;52.094;4.870;2024-01-06T11:45:01;101289.16;;;8.89;58.23
51496;BME280;37572;52.094;4.870;2024-01-06T11:47:27;101293.47;;;8.91;57.82
51496;BME280;37572;52.094;4.870;2024-01-06T11:49:56;101297.84;;;8.92;57.86
51496;BME280;37572;52.094;4.870;2024-01-06T11:52:21;101293.34;;;8.92;57.74
51496;BME280;37572;52.094;4.870;2024-01-06T11:54:47;101296.13;;;8.91;57.24
51496;BME280;37572;52.094;4.870;2024-01-06T11:57:12;101300.75;;;8.88;57.37
51496;BME280;37572;52.094;4.870;2024-01-06T11:59:38;101300.03;;;8.86;57.43
51496;BME280;37572;52.094;4.870;2024-01-06T12:02:03;101296.69;;;8.84;57.55
51496;BME280;37572;52.094;4.870;2024-01-06T12:04:28;101302.97;;;8.83;57.45
51496;BME280;37572;52.094;4.870;2024-01-06T12:07:05;101296.38;;;8.78;57.21
51496;BME280;37572;52.094;4.870;2024-01-06T12:09:30;101293.13;;;8.74;57.52
51496;BME280;37572;52.094;4.870;2024-01-06T12:12:02;101306.53;;;8.73;57.61
51496;BME280;37572;52.094;4.870;2024-01-06T12:14:29;101308.34;;;8.72;57.59
51496;BME280;37572;52.094;4.870;2024-01-06T12:16:54;101302.09;;;8.73;57.68
51496;BME280;37572;52.094;4.870;2024-01-06T12:19:23;101299.44;;;8.73;57.71
51496;BME280;37572;52.094;4.870;2024-01-06T12:21:48;101303.75;;;8.74;57.49
51496;BME280;37572;52.094;4.870;2024-01-06T12:24:18;101306.53;;;8.73;57.50
51496;BME280;37572;52.094;4.870;2024-01-06T12:26:47;101309.34;;;8.71;57.76
51496;BME280;37572;52.094;4.870;2024-01-06T12:29:14;101306.81;;;8.69;57.67
51496;BME280;37572;52.094;4.870;2024-01-06T12:31:40;101306.81;;;8.69;57.97
51496;BME280;37572;52.094;4.870;2024-01-06T12:34:06;101313.94;;;8.69;57.65
51496;BME280;37572;52.094;4.870;2024-01-06T12:36:36;101305.97;;;8.69;57.61
51496;BME280;37572;52.094;4.870;2024-01-06T12:39:03;101309.34;;;8.71;57.61
51496;BME280;37572;52.094;4.870;2024-01-06T12:41:28;101312.69;;;8.73;58.03
51496;BME280;37572;52.094;4.870;2024-01-06T12:43:54;101312.56;;;8.75;58.03
51496;BME280;37572;52.094;4.870;2024-01-06T12:46:19;101309.66;;;8.78;57.83
51496;BME280;37572;52.094;4.870;2024-01-06T12:48:44;101318.31;;;8.80;57.98
51496;BME280;37572;52.094;4.870;2024-01-06T12:51:10;101313.72;;;8.82;58.10
51496;BME280;37572;52.094;4.870;2024-01-06T12:53:35;101316.13;;;8.85;57.99
51496;BME280;37572;52.094;4.870;2024-01-06T12:56:01;101317.81;;;8.86;57.87
51496;BME280;37572;52.094;4.870;2024-01-06T12:58:26;101321.28;;;8.86;57.75